createdAt,value
2022-10-13T00:03:13.361Z,49.66
2022-10-13T00:08:19.854Z,49.52
2022-10-13T00:13:21.824Z,49.78
2022-10-13T00:18:23.650Z,50.04
2022-10-13T00:23:25.685Z,49.63
2022-10-13T00:28:27.530Z,49.39
2022-10-13T00:33:29.530Z,49.80
2022-10-13T00:38:31.334Z,49.96
2022-10-13T00:44:00.580Z,49.44
2022-10-13T00:49:11.855Z,49.61
2022-10-13T00:54:20.578Z,49.09
2022-10-13T00:59:27.573Z,48.97
2022-10-13T01:04:37.365Z,48.80
2022-10-13T01:09:39.158Z,48.67
2022-10-13T01:14:50.750Z,48.46
2022-10-13T01:20:30.325Z,48.51
2022-10-13T01:25:55.516Z,48.32
2022-10-13T01:31:15.086Z,48.54
2022-10-13T01:36:33.115Z,48.66
2022-10-13T01:41:46.857Z,48.43
2022-10-13T01:46:51.731Z,48.46
2022-10-13T01:51:56.333Z,48.43
2022-10-13T01:56:58.219Z,48.60
2022-10-13T02:02:19.560Z,48.45
2022-10-13T02:07:34.631Z,48.48
2022-10-13T02:12:50.389Z,48.75
2022-10-13T02:17:53.475Z,48.89
2022-10-13T02:23:01.351Z,48.66
2022-10-13T02:28:04.196Z,49.03
2022-10-13T02:33:11.398Z,49.22
2022-10-13T02:38:13.486Z,48.96
2022-10-13T02:43:15.371Z,49.21
2022-10-13T02:48:17.178Z,49.37
2022-10-13T02:53:19.026Z,49.63
2022-10-13T02:58:20.997Z,49.37
2022-10-13T03:03:22.800Z,49.78
2022-10-13T03:08:26.139Z,49.89
2022-10-13T03:13:28.368Z,50.24
2022-10-13T03:18:35.509Z,50.69
2022-10-13T03:23:37.329Z,50.84
2022-10-13T03:28:39.165Z,50.84
2022-10-13T03:33:41.206Z,51.27
2022-10-13T03:38:43.271Z,50.90
2022-10-13T03:43:46.215Z,51.15
2022-10-13T03:48:48.267Z,51.23
2022-10-13T03:53:52.017Z,51.13
2022-10-13T03:58:56.654Z,51.17
2022-10-13T04:03:59.712Z,50.96
2022-10-13T04:09:01.574Z,50.90
2022-10-13T04:14:03.767Z,50.88
2022-10-13T04:19:05.928Z,50.97
2022-10-13T04:24:08.674Z,50.96
2022-10-13T04:29:13.422Z,51.03
2022-10-13T04:34:15.227Z,51.30
2022-10-13T04:39:17.035Z,51.14
2022-10-13T04:44:19.029Z,51.00
2022-10-13T04:49:20.870Z,51.02
2022-10-13T04:54:22.718Z,50.84
2022-10-13T04:59:24.505Z,50.90
2022-10-13T05:04:26.314Z,51.17
2022-10-13T05:09:28.153Z,51.08
2022-10-13T05:14:31.191Z,51.31
2022-10-13T05:19:35.006Z,51.05
2022-10-13T05:24:36.834Z,52.30
2022-10-13T05:29:39.569Z,52.72
2022-10-13T05:34:41.353Z,52.88
2022-10-13T05:39:47.040Z,53.09
2022-10-13T05:44:51.243Z,52.06
2022-10-13T05:49:53.044Z,51.78
2022-10-13T05:55:02.339Z,51.74
2022-10-13T06:00:16.441Z,51.91
2022-10-13T06:05:21.847Z,51.90
2022-10-13T06:10:27.630Z,51.61
2022-10-13T06:15:29.401Z,51.52
2022-10-13T06:20:31.343Z,51.53
2022-10-13T06:25:33.160Z,51.66
2022-10-13T06:30:34.934Z,51.69
2022-10-13T06:35:36.724Z,51.75
2022-10-13T06:40:38.595Z,52.04
2022-10-13T06:45:40.429Z,52.13
2022-10-13T06:50:43.072Z,52.32
2022-10-13T06:55:47.090Z,52.21
2022-10-13T07:00:52.681Z,52.32
2022-10-13T07:05:54.876Z,52.25
2022-10-13T07:10:57.156Z,52.54
2022-10-13T07:15:58.987Z,52.22
2022-10-13T07:21:01.535Z,52.13
2022-10-13T07:26:08.016Z,52.33
2022-10-13T07:31:14.659Z,52.02
2022-10-13T07:36:16.926Z,51.85
2022-10-13T07:41:18.727Z,51.59
2022-10-13T07:46:20.726Z,51.74
2022-10-13T07:51:23.025Z,51.85
2022-10-13T07:56:24.887Z,51.20
2022-10-13T08:01:27.153Z,51.11
2022-10-13T08:06:29.351Z,50.82
2022-10-13T08:11:33.014Z,50.83
2022-10-13T08:16:34.841Z,50.71
2022-10-13T08:26:59.248Z,50.72
2022-10-13T08:32:01.304Z,51.02
2022-10-13T08:37:04.487Z,50.96
2022-10-13T08:42:22.251Z,50.50
2022-10-13T08:47:27.463Z,50.11
2022-10-13T08:52:45.028Z,49.45
2022-10-13T08:57:46.961Z,48.78
2022-10-13T09:02:49.779Z,48.29
2022-10-13T09:13:01.351Z,46.99
2022-10-13T09:18:12.073Z,46.04
2022-10-13T09:23:23.159Z,44.68
2022-10-13T09:28:30.458Z,44.62
2022-10-13T09:33:37.190Z,44.16
2022-10-13T09:38:40.978Z,42.37
2022-10-13T09:43:48.650Z,41.69
2022-10-13T09:49:31.833Z,42.21
2022-10-13T09:54:40.449Z,42.02
2022-10-13T09:59:48.996Z,41.09
2022-10-13T10:04:53.739Z,41.48
2022-10-13T10:09:59.098Z,41.17
2022-10-13T10:15:01.577Z,41.03
2022-10-13T10:20:33.552Z,41.22
2022-10-13T10:25:44.811Z,40.78
2022-10-13T10:30:54.844Z,40.93
2022-10-13T10:36:16.759Z,41.25
2022-10-13T10:41:40.855Z,41.08
2022-10-13T10:46:48.179Z,41.01
2022-10-13T10:51:50.262Z,41.04
2022-10-13T10:57:21.285Z,40.92
2022-10-13T11:02:43.061Z,40.34
2022-10-13T11:07:45.632Z,39.72
2022-10-13T11:12:53.549Z,40.06
2022-10-13T11:17:55.437Z,40.11
2022-10-13T11:22:58.482Z,40.13
2022-10-13T11:28:00.331Z,39.05
2022-10-13T11:33:09.273Z,38.74
2022-10-13T11:38:35.823Z,38.83
2022-10-13T11:43:40.766Z,38.56
2022-10-13T11:49:04.471Z,38.97
2022-10-13T11:54:33.163Z,39.07
2022-10-13T11:59:39.381Z,38.97
2022-10-13T12:04:46.512Z,38.58
2022-10-13T12:09:51.698Z,38.40
2022-10-13T12:14:59.906Z,38.37
2022-10-13T12:20:21.690Z,38.47
2022-10-13T12:25:26.877Z,38.88
2022-10-13T12:30:38.280Z,38.69
2022-10-13T12:35:40.113Z,39.01
2022-10-13T12:40:42.048Z,39.08
2022-10-13T12:45:44.494Z,39.25
2022-10-13T12:50:46.287Z,39.35
2022-10-13T12:55:50.821Z,39.24
2022-10-13T13:01:15.737Z,39.26
2022-10-13T13:06:17.505Z,39.54
2022-10-13T13:11:32.927Z,39.79
2022-10-13T13:16:39.370Z,39.94
2022-10-13T13:21:41.509Z,40.04
2022-10-13T13:26:46.038Z,40.57
2022-10-13T13:31:47.845Z,40.27
2022-10-13T13:36:50.326Z,40.83
2022-10-13T13:41:52.122Z,40.69
2022-10-13T13:46:53.929Z,40.81
2022-10-13T13:51:55.783Z,41.00
2022-10-13T13:56:58.878Z,40.81
2022-10-13T14:02:02.670Z,41.11
2022-10-13T14:07:07.892Z,40.94
2022-10-13T14:12:09.670Z,41.23
2022-10-13T14:17:11.468Z,41.13
2022-10-13T14:22:13.300Z,41.18
2022-10-13T14:27:15.445Z,40.93
2022-10-13T14:32:17.398Z,41.05
2022-10-13T14:37:23.034Z,41.45
2022-10-13T14:42:26.917Z,41.75
2022-10-13T14:47:28.754Z,41.75
2022-10-13T14:52:30.668Z,42.02
2022-10-13T14:57:32.444Z,42.51
2022-10-13T15:02:34.421Z,42.57
2022-10-13T15:07:40.965Z,42.50
2022-10-13T15:12:43.764Z,42.53
2022-10-13T15:17:45.591Z,42.84
2022-10-13T15:22:48.045Z,42.59
2022-10-13T15:27:50.269Z,42.65
2022-10-13T15:32:52.716Z,42.47
2022-10-13T15:37:54.577Z,42.54
2022-10-13T15:42:56.363Z,42.53
2022-10-13T15:47:58.286Z,42.65
2022-10-13T15:53:00.283Z,42.71
2022-10-13T15:58:02.104Z,42.99
2022-10-13T16:03:05.064Z,43.80
2022-10-13T16:08:06.877Z,44.21
2022-10-13T16:13:12.486Z,44.41
2022-10-13T16:18:14.292Z,44.99
2022-10-13T16:23:16.079Z,45.40
2022-10-13T16:28:18.259Z,46.03
2022-10-13T16:33:20.728Z,45.96
2022-10-13T16:38:22.618Z,45.95
2022-10-13T16:43:24.508Z,46.02
2022-10-13T16:48:30.426Z,46.20
2022-10-13T16:53:32.671Z,46.50
2022-10-13T16:58:35.649Z,46.78
2022-10-13T17:03:39.906Z,46.60
2022-10-13T17:08:44.636Z,46.76
2022-10-13T17:13:47.474Z,47.02
2022-10-13T17:18:49.623Z,46.87
2022-10-13T17:23:51.609Z,47.06
2022-10-13T17:28:54.057Z,47.05
2022-10-13T17:33:56.172Z,47.01
2022-10-13T17:39:03.329Z,46.81
2022-10-13T17:44:05.247Z,46.79
2022-10-13T17:49:09.837Z,47.12
2022-10-13T17:54:16.108Z,47.84
2022-10-13T17:59:18.732Z,47.77
2022-10-13T18:04:22.370Z,47.82
2022-10-13T18:09:24.798Z,47.88
2022-10-13T18:14:27.117Z,48.33
2022-10-13T18:19:28.937Z,48.49
2022-10-13T18:24:30.838Z,48.25
2022-10-13T18:29:32.646Z,48.23
2022-10-13T18:34:34.727Z,48.61
2022-10-13T18:39:36.513Z,48.92
2022-10-13T18:44:38.341Z,48.96
2022-10-13T18:49:40.192Z,48.88
2022-10-13T18:54:42.058Z,48.71
2022-10-13T18:59:43.859Z,49.09
2022-10-13T19:04:45.725Z,49.25
2022-10-13T19:09:47.493Z,49.44
2022-10-13T19:14:49.301Z,49.07
2022-10-13T19:19:51.113Z,48.95
2022-10-13T19:24:52.930Z,49.47
2022-10-13T19:29:54.974Z,49.51
2022-10-13T19:34:57.180Z,49.96
2022-10-13T19:39:58.993Z,49.89
2022-10-13T19:45:04.967Z,49.96
2022-10-13T19:50:07.289Z,50.49
2022-10-13T19:55:09.620Z,50.33
2022-10-13T20:00:12.265Z,50.22
2022-10-13T20:05:18.248Z,49.71
2022-10-13T20:10:22.006Z,49.50
2022-10-13T20:15:23.848Z,49.24
2022-10-13T20:20:29.143Z,48.96
2022-10-13T20:25:36.974Z,48.88
2022-10-13T20:30:40.154Z,48.78
2022-10-13T20:35:42.071Z,48.56
2022-10-13T20:40:43.964Z,48.82
2022-10-13T20:45:46.932Z,48.84
2022-10-13T20:50:48.718Z,48.95
2022-10-13T20:56:00.860Z,49.53
2022-10-13T21:01:04.166Z,49.64
2022-10-13T21:06:11.261Z,49.77
2022-10-13T21:11:15.129Z,49.65
2022-10-13T21:16:23.508Z,49.02
2022-10-13T21:21:30.384Z,48.87
2022-10-13T21:26:35.260Z,48.80
2022-10-13T21:31:37.415Z,48.62
2022-10-13T21:36:44.349Z,48.59
2022-10-13T21:41:47.829Z,48.74
2022-10-13T21:46:49.965Z,48.47
2022-10-13T21:51:51.968Z,48.66
2022-10-13T21:56:53.758Z,48.71
2022-10-13T22:01:55.571Z,48.75
2022-10-13T22:06:57.393Z,49.14
2022-10-13T22:11:59.899Z,49.27
2022-10-13T22:17:01.725Z,49.07
2022-10-13T22:22:03.647Z,49.19
2022-10-13T22:27:05.430Z,49.23
2022-10-13T22:32:07.334Z,49.00
2022-10-13T22:37:09.330Z,49.00
2022-10-13T22:42:11.132Z,49.12
2022-10-13T22:47:12.989Z,48.97
2022-10-13T22:52:14.769Z,49.42
2022-10-13T22:57:17.210Z,49.35
2022-10-13T23:02:18.993Z,49.78
2022-10-13T23:07:21.039Z,50.50
2022-10-13T23:12:23.013Z,50.48
2022-10-13T23:17:24.924Z,50.74
2022-10-13T23:22:27.186Z,50.62
2022-10-13T23:27:31.229Z,50.35
2022-10-13T23:32:33.118Z,50.38
2022-10-13T23:37:35.143Z,50.44
2022-10-13T23:42:37.002Z,50.61
2022-10-13T23:47:38.821Z,50.88
2022-10-13T23:52:40.648Z,50.56
2022-10-13T23:57:42.456Z,50.68
